sensor_id;sensor_type;location;lat;lon;timestamp;P1;durP1;ratioP1;P2;durP2;ratioP2
70420;SDS011;57848;51.938;15.520;2022-12-07T00:00:42;6.33;;;2.20;;
70420;SDS011;57848;51.938;15.520;2022-12-07T00:03:07;5.70;;;1.87;;
70420;SDS011;57848;51.938;15.520;2022-12-07T00:05:32;6.13;;;2.20;;
70420;SDS011;57848;51.938;15.520;2022-12-07T00:07:58;6.23;;;1.90;;
70420;SDS011;57848;51.938;15.520;2022-12-07T00:10:23;6.03;;;2.00;;
70420;SDS011;57848;51.938;15.520;2022-12-07T00:12:49;5.40;;;1.80;;
70420;SDS011;57848;51.938;15.520;2022-12-07T00:15:15;6.00;;;1.77;;
70420;SDS011;57848;51.938;15.520;2022-12-07T00:17:40;5.97;;;1.90;;
70420;SDS011;57848;51.938;15.520;2022-12-07T00:20:06;6.03;;;1.87;;
70420;SDS011;57848;51.938;15.520;2022-12-07T00:22:31;6.20;;;2.10;;
70420;SDS011;57848;51.938;15.520;2022-12-07T00:24:57;6.40;;;1.97;;
70420;SDS011;57848;51.938;15.520;2022-12-07T00:27:22;6.00;;;2.15;;
70420;SDS011;57848;51.938;15.520;2022-12-07T00:29:48;7.37;;;2.37;;
70420;SDS011;57848;51.938;15.520;2022-12-07T00:32:13;6.83;;;2.40;;
70420;SDS011;57848;51.938;15.520;2022-12-07T00:34:38;6.23;;;2.03;;
70420;SDS011;57848;51.938;15.520;2022-12-07T00:37:04;6.13;;;1.90;;
70420;SDS011;57848;51.938;15.520;2022-12-07T00:39:29;6.57;;;2.10;;
70420;SDS011;57848;51.938;15.520;2022-12-07T00:41:54;6.80;;;2.10;;
70420;SDS011;57848;51.938;15.520;2022-12-07T00:44:20;5.70;;;2.00;;
70420;SDS011;57848;51.938;15.520;2022-12-07T00:46:45;6.03;;;1.83;;
70420;SDS011;57848;51.938;15.520;2022-12-07T00:49:11;6.68;;;1.70;;
70420;SDS011;57848;51.938;15.520;2022-12-07T00:51:37;6.77;;;2.00;;
70420;SDS011;57848;51.938;15.520;2022-12-07T00:54:03;5.50;;;1.50;;
70420;SDS011;57848;51.938;15.520;2022-12-07T00:56:28;5.57;;;2.10;;
70420;SDS011;57848;51.938;15.520;2022-12-07T00:58:58;5.47;;;1.50;;
70420;SDS011;57848;51.938;15.520;2022-12-07T01:01:29;5.77;;;1.50;;
70420;SDS011;57848;51.938;15.520;2022-12-07T01:03:59;6.30;;;2.17;;
70420;SDS011;57848;51.938;15.520;2022-12-07T01:06:26;6.15;;;2.05;;
70420;SDS011;57848;51.938;15.520;2022-12-07T01:08:52;7.82;;;2.22;;
70420;SDS011;57848;51.938;15.520;2022-12-07T01:11:19;7.65;;;2.75;;
70420;SDS011;57848;51.938;15.520;2022-12-07T01:13:49;10.47;;;2.37;;
70420;SDS011;57848;51.938;15.520;2022-12-07T01:16:16;14.35;;;3.00;;
70420;SDS011;57848;51.938;15.520;2022-12-07T01:18:42;12.80;;;2.90;;
70420;SDS011;57848;51.938;15.520;2022-12-07T01:23:37;27.10;;;3.97;;
70420;SDS011;57848;51.938;15.520;2022-12-07T01:26:05;30.63;;;3.88;;
70420;SDS011;57848;51.938;15.520;2022-12-07T01:28:33;14.30;;;3.40;;
70420;SDS011;57848;51.938;15.520;2022-12-07T01:30:59;13.87;;;4.07;;
70420;SDS011;57848;51.938;15.520;2022-12-07T01:33:27;69.13;;;4.80;;
70420;SDS011;57848;51.938;15.520;2022-12-07T01:35:54;48.67;;;4.90;;
70420;SDS011;57848;51.938;15.520;2022-12-07T01:38:19;16.60;;;3.80;;
70420;SDS011;57848;51.938;15.520;2022-12-07T01:40:45;58.33;;;5.20;;
70420;SDS011;57848;51.938;15.520;2022-12-07T01:43:15;18.77;;;4.37;;
70420;SDS011;57848;51.938;15.520;2022-12-07T01:45:43;19.10;;;3.78;;
70420;SDS011;57848;51.938;15.520;2022-12-07T01:48:09;28.10;;;4.43;;
70420;SDS011;57848;51.938;15.520;2022-12-07T01:50:37;41.07;;;5.07;;
70420;SDS011;57848;51.938;15.520;2022-12-07T01:53:05;26.58;;;3.85;;
70420;SDS011;57848;51.938;15.520;2022-12-07T01:55:34;18.25;;;3.65;;
70420;SDS011;57848;51.938;15.520;2022-12-07T01:58:02;30.60;;;3.90;;
70420;SDS011;57848;51.938;15.520;2022-12-07T02:00:28;32.28;;;3.85;;
70420;SDS011;57848;51.938;15.520;2022-12-07T02:02:55;24.33;;;4.23;;
70420;SDS011;57848;51.938;15.520;2022-12-07T02:05:28;14.02;;;3.20;;
70420;SDS011;57848;51.938;15.520;2022-12-07T02:07:54;9.20;;;2.90;;
70420;SDS011;57848;51.938;15.520;2022-12-07T02:10:22;12.63;;;3.25;;
70420;SDS011;57848;51.938;15.520;2022-12-07T02:12:57;9.68;;;2.97;;
70420;SDS011;57848;51.938;15.520;2022-12-07T02:15:28;10.13;;;2.40;;
70420;SDS011;57848;51.938;15.520;2022-12-07T02:20:34;7.90;;;2.73;;
70420;SDS011;57848;51.938;15.520;2022-12-07T02:23:21;8.45;;;2.83;;
70420;SDS011;57848;51.938;15.520;2022-12-07T02:31:31;15.73;;;2.93;;
70420;SDS011;57848;51.938;15.520;2022-12-07T02:34:04;77.57;;;4.30;;
70420;SDS011;57848;51.938;15.520;2022-12-07T02:36:32;38.90;;;3.67;;
70420;SDS011;57848;51.938;15.520;2022-12-07T02:39:07;25.48;;;4.00;;
70420;SDS011;57848;51.938;15.520;2022-12-07T02:41:40;27.35;;;3.55;;
70420;SDS011;57848;51.938;15.520;2022-12-07T02:44:12;45.07;;;4.10;;
70420;SDS011;57848;51.938;15.520;2022-12-07T02:46:52;50.97;;;4.72;;
70420;SDS011;57848;51.938;15.520;2022-12-07T02:49:21;23.05;;;4.97;;
70420;SDS011;57848;51.938;15.520;2022-12-07T02:51:49;11.95;;;4.05;;
70420;SDS011;57848;51.938;15.520;2022-12-07T02:54:19;19.67;;;4.38;;
70420;SDS011;57848;51.938;15.520;2022-12-07T02:56:48;9.77;;;3.87;;
70420;SDS011;57848;51.938;15.520;2022-12-07T03:02:25;11.15;;;3.97;;
70420;SDS011;57848;51.938;15.520;2022-12-07T03:05:03;13.80;;;4.43;;
70420;SDS011;57848;51.938;15.520;2022-12-07T03:16:01;15.40;;;4.20;;
70420;SDS011;57848;51.938;15.520;2022-12-07T03:18:49;12.07;;;5.00;;
70420;SDS011;57848;51.938;15.520;2022-12-07T03:21:20;14.27;;;5.13;;
70420;SDS011;57848;51.938;15.520;2022-12-07T03:23:51;16.23;;;4.83;;
70420;SDS011;57848;51.938;15.520;2022-12-07T03:26:32;14.43;;;4.57;;
70420;SDS011;57848;51.938;15.520;2022-12-07T03:29:04;14.05;;;5.30;;
70420;SDS011;57848;51.938;15.520;2022-12-07T03:31:33;15.52;;;5.32;;
70420;SDS011;57848;51.938;15.520;2022-12-07T03:34:38;11.95;;;4.35;;
70420;SDS011;57848;51.938;15.520;2022-12-07T03:37:06;10.57;;;4.03;;
70420;SDS011;57848;51.938;15.520;2022-12-07T03:39:45;10.48;;;3.97;;
70420;SDS011;57848;51.938;15.520;2022-12-07T03:42:17;9.68;;;4.20;;
70420;SDS011;57848;51.938;15.520;2022-12-07T03:44:43;10.07;;;4.00;;
70420;SDS011;57848;51.938;15.520;2022-12-07T03:47:14;10.63;;;4.55;;
70420;SDS011;57848;51.938;15.520;2022-12-07T03:49:48;10.27;;;4.28;;
70420;SDS011;57848;51.938;15.520;2022-12-07T03:52:23;10.05;;;4.25;;
70420;SDS011;57848;51.938;15.520;2022-12-07T03:57:26;9.03;;;3.57;;
70420;SDS011;57848;51.938;15.520;2022-12-07T03:59:54;9.63;;;3.35;;
70420;SDS011;57848;51.938;15.520;2022-12-07T04:02:21;8.40;;;3.20;;
70420;SDS011;57848;51.938;15.520;2022-12-07T04:04:48;8.77;;;3.80;;
70420;SDS011;57848;51.938;15.520;2022-12-07T04:07:14;10.65;;;4.00;;
70420;SDS011;57848;51.938;15.520;2022-12-07T04:09:40;9.13;;;3.40;;
70420;SDS011;57848;51.938;15.520;2022-12-07T04:12:05;9.23;;;3.40;;
70420;SDS011;57848;51.938;15.520;2022-12-07T04:14:31;10.77;;;4.50;;
70420;SDS011;57848;51.938;15.520;2022-12-07T04:16:57;9.80;;;3.93;;
70420;SDS011;57848;51.938;15.520;2022-12-07T04:19:25;11.38;;;4.50;;
70420;SDS011;57848;51.938;15.520;2022-12-07T04:21:52;10.73;;;4.97;;
70420;SDS011;57848;51.938;15.520;2022-12-07T04:24:18;12.55;;;4.80;;
70420;SDS011;57848;51.938;15.520;2022-12-07T04:26:43;14.83;;;5.70;;
70420;SDS011;57848;51.938;15.520;2022-12-07T04:29:09;15.85;;;5.60;;
70420;SDS011;57848;51.938;15.520;2022-12-07T04:31:35;15.73;;;5.87;;
70420;SDS011;57848;51.938;15.520;2022-12-07T04:34:01;13.85;;;5.50;;
70420;SDS011;57848;51.938;15.520;2022-12-07T04:36:27;16.73;;;5.50;;
70420;SDS011;57848;51.938;15.520;2022-12-07T04:38:53;14.07;;;5.17;;
70420;SDS011;57848;51.938;15.520;2022-12-07T04:41:20;16.05;;;5.97;;
70420;SDS011;57848;51.938;15.520;2022-12-07T04:44:02;11.52;;;4.90;;
70420;SDS011;57848;51.938;15.520;2022-12-07T04:46:29;12.48;;;5.32;;
70420;SDS011;57848;51.938;15.520;2022-12-07T04:48:56;12.33;;;4.20;;
70420;SDS011;57848;51.938;15.520;2022-12-07T04:51:23;11.13;;;4.57;;
70420;SDS011;57848;51.938;15.520;2022-12-07T04:53:51;13.80;;;4.43;;
70420;SDS011;57848;51.938;15.520;2022-12-07T04:56:16;9.97;;;3.90;;
70420;SDS011;57848;51.938;15.520;2022-12-07T04:58:43;11.30;;;4.80;;
70420;SDS011;57848;51.938;15.520;2022-12-07T05:01:10;10.52;;;4.20;;
70420;SDS011;57848;51.938;15.520;2022-12-07T05:03:36;9.85;;;3.83;;
70420;SDS011;57848;51.938;15.520;2022-12-07T05:06:02;10.63;;;3.93;;
70420;SDS011;57848;51.938;15.520;2022-12-07T05:08:28;10.30;;;3.92;;
70420;SDS011;57848;51.938;15.520;2022-12-07T05:10:53;9.43;;;3.80;;
70420;SDS011;57848;51.938;15.520;2022-12-07T05:13:18;10.82;;;4.03;;
70420;SDS011;57848;51.938;15.520;2022-12-07T05:15:44;9.80;;;3.97;;
70420;SDS011;57848;51.938;15.520;2022-12-07T05:18:11;9.38;;;3.35;;
70420;SDS011;57848;51.938;15.520;2022-12-07T05:20:38;9.03;;;3.80;;
70420;SDS011;57848;51.938;15.520;2022-12-07T05:23:04;9.15;;;3.35;;
70420;SDS011;57848;51.938;15.520;2022-12-07T05:25:29;9.30;;;3.53;;
70420;SDS011;57848;51.938;15.520;2022-12-07T05:27:55;8.97;;;3.53;;
70420;SDS011;57848;51.938;15.520;2022-12-07T05:30:21;11.90;;;3.88;;
70420;SDS011;57848;51.938;15.520;2022-12-07T05:32:47;8.47;;;3.90;;
70420;SDS011;57848;51.938;15.520;2022-12-07T05:35:12;9.90;;;3.90;;
70420;SDS011;57848;51.938;15.520;2022-12-07T05:37:38;10.40;;;4.27;;
70420;SDS011;57848;51.938;15.520;2022-12-07T05:40:04;9.10;;;3.70;;
70420;SDS011;57848;51.938;15.520;2022-12-07T05:42:30;10.82;;;3.90;;
70420;SDS011;57848;51.938;15.520;2022-12-07T05:44:55;8.90;;;3.57;;
70420;SDS011;57848;51.938;15.520;2022-12-07T05:47:21;11.03;;;4.37;;
70420;SDS011;57848;51.938;15.520;2022-12-07T05:49:46;10.80;;;3.70;;
70420;SDS011;57848;51.938;15.520;2022-12-07T05:52:11;9.37;;;3.70;;
70420;SDS011;57848;51.938;15.520;2022-12-07T05:54:37;9.85;;;3.90;;
70420;SDS011;57848;51.938;15.520;2022-12-07T05:57:02;10.20;;;4.37;;
70420;SDS011;57848;51.938;15.520;2022-12-07T05:59:28;9.57;;;4.00;;
70420;SDS011;57848;51.938;15.520;2022-12-07T06:04:48;11.60;;;4.15;;
70420;SDS011;57848;51.938;15.520;2022-12-07T06:07:14;10.17;;;3.63;;
70420;SDS011;57848;51.938;15.520;2022-12-07T06:09:40;13.38;;;5.55;;
70420;SDS011;57848;51.938;15.520;2022-12-07T06:12:06;18.33;;;6.77;;
70420;SDS011;57848;51.938;15.520;2022-12-07T06:14:52;31.40;;;11.15;;
70420;SDS011;57848;51.938;15.520;2022-12-07T06:17:18;11.87;;;3.50;;
70420;SDS011;57848;51.938;15.520;2022-12-07T06:19:43;9.53;;;3.33;;
70420;SDS011;57848;51.938;15.520;2022-12-07T06:22:09;10.40;;;3.83;;
70420;SDS011;57848;51.938;15.520;2022-12-07T06:24:36;11.85;;;4.70;;
70420;SDS011;57848;51.938;15.520;2022-12-07T06:27:02;11.82;;;4.68;;
70420;SDS011;57848;51.938;15.520;2022-12-07T06:29:27;11.93;;;5.67;;
70420;SDS011;57848;51.938;15.520;2022-12-07T06:31:53;14.95;;;5.30;;
70420;SDS011;57848;51.938;15.520;2022-12-07T06:34:19;14.30;;;5.03;;
70420;SDS011;57848;51.938;15.520;2022-12-07T06:36:47;12.75;;;5.72;;
70420;SDS011;57848;51.938;15.520;2022-12-07T06:39:17;14.67;;;7.17;;
70420;SDS011;57848;51.938;15.520;2022-12-07T06:41:43;15.35;;;6.40;;
70420;SDS011;57848;51.938;15.520;2022-12-07T06:44:09;15.77;;;5.93;;
70420;SDS011;57848;51.938;15.520;2022-12-07T06:46:34;17.77;;;7.37;;
70420;SDS011;57848;51.938;15.520;2022-12-07T06:49:03;17.17;;;6.45;;
70420;SDS011;57848;51.938;15.520;2022-12-07T06:51:29;14.03;;;6.23;;
70420;SDS011;57848;51.938;15.520;2022-12-07T06:53:55;17.55;;;7.20;;
70420;SDS011;57848;51.938;15.520;2022-12-07T06:56:20;17.23;;;6.53;;
70420;SDS011;57848;51.938;15.520;2022-12-07T06:58:46;15.82;;;6.30;;
70420;SDS011;57848;51.938;15.520;2022-12-07T07:01:12;16.53;;;6.77;;
70420;SDS011;57848;51.938;15.520;2022-12-07T07:03:38;19.02;;;7.72;;
70420;SDS011;57848;51.938;15.520;2022-12-07T07:06:04;15.83;;;6.83;;
70420;SDS011;57848;51.938;15.520;2022-12-07T07:08:31;19.73;;;7.32;;
70420;SDS011;57848;51.938;15.520;2022-12-07T07:10:56;18.87;;;7.53;;
70420;SDS011;57848;51.938;15.520;2022-12-07T07:13:21;18.07;;;8.30;;
70420;SDS011;57848;51.938;15.520;2022-12-07T07:15:47;17.67;;;7.87;;
70420;SDS011;57848;51.938;15.520;2022-12-07T07:18:12;17.87;;;7.47;;
70420;SDS011;57848;51.938;15.520;2022-12-07T07:20:38;15.47;;;6.73;;
70420;SDS011;57848;51.938;15.520;2022-12-07T07:23:03;16.07;;;7.07;;
70420;SDS011;57848;51.938;15.520;2022-12-07T07:25:29;18.23;;;6.88;;
70420;SDS011;57848;51.938;15.520;2022-12-07T07:27:54;17.80;;;7.60;;
70420;SDS011;57848;51.938;15.520;2022-12-07T07:30:20;18.40;;;7.93;;
70420;SDS011;57848;51.938;15.520;2022-12-07T07:32:46;17.60;;;7.17;;
70420;SDS011;57848;51.938;15.520;2022-12-07T07:35:11;19.73;;;7.70;;
70420;SDS011;57848;51.938;15.520;2022-12-07T07:37:39;17.97;;;7.37;;
70420;SDS011;57848;51.938;15.520;2022-12-07T07:40:04;23.55;;;8.50;;
70420;SDS011;57848;51.938;15.520;2022-12-07T07:42:30;23.60;;;9.32;;
70420;SDS011;57848;51.938;15.520;2022-12-07T07:44:56;23.43;;;9.73;;
70420;SDS011;57848;51.938;15.520;2022-12-07T07:47:21;25.37;;;10.10;;
70420;SDS011;57848;51.938;15.520;2022-12-07T07:49:46;22.93;;;9.13;;
70420;SDS011;57848;51.938;15.520;2022-12-07T07:52:12;21.13;;;9.13;;
70420;SDS011;57848;51.938;15.520;2022-12-07T07:54:37;19.52;;;7.68;;
70420;SDS011;57848;51.938;15.520;2022-12-07T07:57:03;20.73;;;8.80;;
70420;SDS011;57848;51.938;15.520;2022-12-07T07:59:28;20.90;;;8.27;;
70420;SDS011;57848;51.938;15.520;2022-12-07T08:01:54;23.77;;;9.63;;
70420;SDS011;57848;51.938;15.520;2022-12-07T08:04:19;20.00;;;8.57;;
70420;SDS011;57848;51.938;15.520;2022-12-07T08:06:45;20.17;;;8.80;;
70420;SDS011;57848;51.938;15.520;2022-12-07T08:09:10;18.63;;;8.97;;
70420;SDS011;57848;51.938;15.520;2022-12-07T08:11:36;21.88;;;9.07;;
70420;SDS011;57848;51.938;15.520;2022-12-07T08:14:01;20.43;;;8.67;;
70420;SDS011;57848;51.938;15.520;2022-12-07T08:16:27;19.85;;;8.55;;
70420;SDS011;57848;51.938;15.520;2022-12-07T08:18:52;18.77;;;9.03;;
70420;SDS011;57848;51.938;15.520;2022-12-07T08:21:18;20.67;;;9.50;;
70420;SDS011;57848;51.938;15.520;2022-12-07T08:23:44;18.83;;;8.83;;
70420;SDS011;57848;51.938;15.520;2022-12-07T08:26:10;20.50;;;9.17;;
70420;SDS011;57848;51.938;15.520;2022-12-07T08:28:38;20.55;;;9.60;;
70420;SDS011;57848;51.938;15.520;2022-12-07T08:31:05;22.83;;;10.23;;
70420;SDS011;57848;51.938;15.520;2022-12-07T08:33:33;23.02;;;9.95;;
70420;SDS011;57848;51.938;15.520;2022-12-07T08:36:02;21.60;;;10.90;;
70420;SDS011;57848;51.938;15.520;2022-12-07T08:38:29;22.55;;;10.38;;
70420;SDS011;57848;51.938;15.520;2022-12-07T08:40:58;22.10;;;9.67;;
70420;SDS011;57848;51.938;15.520;2022-12-07T08:43:24;21.33;;;10.10;;
70420;SDS011;57848;51.938;15.520;2022-12-07T08:48:55;21.30;;;9.37;;
70420;SDS011;57848;51.938;15.520;2022-12-07T08:51:24;20.80;;;10.18;;
70420;SDS011;57848;51.938;15.520;2022-12-07T08:53:50;21.77;;;10.60;;
70420;SDS011;57848;51.938;15.520;2022-12-07T08:56:17;25.95;;;10.95;;
70420;SDS011;57848;51.938;15.520;2022-12-07T08:58:42;21.38;;;9.68;;
70420;SDS011;57848;51.938;15.520;2022-12-07T09:01:08;20.95;;;10.50;;
70420;SDS011;57848;51.938;15.520;2022-12-07T09:03:34;21.87;;;9.93;;
70420;SDS011;57848;51.938;15.520;2022-12-07T09:06:00;23.87;;;11.40;;
70420;SDS011;57848;51.938;15.520;2022-12-07T09:08:26;21.45;;;9.80;;
70420;SDS011;57848;51.938;15.520;2022-12-07T09:10:59;20.77;;;9.77;;
70420;SDS011;57848;51.938;15.520;2022-12-07T09:13:25;20.23;;;9.33;;
70420;SDS011;57848;51.938;15.520;2022-12-07T09:15:50;19.97;;;9.80;;
70420;SDS011;57848;51.938;15.520;2022-12-07T09:18:16;18.70;;;9.52;;
70420;SDS011;57848;51.938;15.520;2022-12-07T09:20:41;16.83;;;7.03;;
70420;SDS011;57848;51.938;15.520;2022-12-07T09:23:07;18.97;;;8.63;;
70420;SDS011;57848;51.938;15.520;2022-12-07T09:25:33;18.10;;;8.70;;
70420;SDS011;57848;51.938;15.520;2022-12-07T09:27:59;19.53;;;9.40;;
70420;SDS011;57848;51.938;15.520;2022-12-07T09:30:25;20.52;;;9.95;;
70420;SDS011;57848;51.938;15.520;2022-12-07T09:32:55;18.70;;;9.20;;
70420;SDS011;57848;51.938;15.520;2022-12-07T09:35:21;20.85;;;9.98;;
70420;SDS011;57848;51.938;15.520;2022-12-07T09:37:47;19.60;;;10.47;;
70420;SDS011;57848;51.938;15.520;2022-12-07T09:40:13;21.00;;;10.15;;
70420;SDS011;57848;51.938;15.520;2022-12-07T09:42:39;21.00;;;9.63;;
70420;SDS011;57848;51.938;15.520;2022-12-07T09:45:17;19.65;;;9.05;;
70420;SDS011;57848;51.938;15.520;2022-12-07T09:47:46;18.77;;;8.55;;
70420;SDS011;57848;51.938;15.520;2022-12-07T09:50:13;21.38;;;9.23;;
70420;SDS011;57848;51.938;15.520;2022-12-07T09:52:47;18.57;;;8.57;;
70420;SDS011;57848;51.938;15.520;2022-12-07T09:55:15;18.95;;;9.18;;
70420;SDS011;57848;51.938;15.520;2022-12-07T09:57:44;43.33;;;16.33;;
70420;SDS011;57848;51.938;15.520;2022-12-07T10:00:12;21.65;;;10.55;;
70420;SDS011;57848;51.938;15.520;2022-12-07T10:02:41;18.27;;;8.47;;
70420;SDS011;57848;51.938;15.520;2022-12-07T10:05:15;20.40;;;9.27;;
70420;SDS011;57848;51.938;15.520;2022-12-07T10:07:44;19.27;;;9.52;;
70420;SDS011;57848;51.938;15.520;2022-12-07T10:10:22;19.20;;;9.50;;
70420;SDS011;57848;51.938;15.520;2022-12-07T10:15:40;21.25;;;9.48;;
70420;SDS011;57848;51.938;15.520;2022-12-07T10:18:14;22.95;;;9.40;;
70420;SDS011;57848;51.938;15.520;2022-12-07T10:20:44;19.13;;;9.50;;
70420;SDS011;57848;51.938;15.520;2022-12-07T10:23:17;23.30;;;12.45;;
70420;SDS011;57848;51.938;15.520;2022-12-07T10:25:43;21.67;;;10.02;;
70420;SDS011;57848;51.938;15.520;2022-12-07T10:28:18;18.27;;;9.15;;
70420;SDS011;57848;51.938;15.520;2022-12-07T10:30:52;18.80;;;9.55;;
70420;SDS011;57848;51.938;15.520;2022-12-07T10:33:33;19.97;;;8.53;;
70420;SDS011;57848;51.938;15.520;2022-12-07T10:35:59;22.17;;;9.40;;
70420;SDS011;57848;51.938;15.520;2022-12-07T10:38:26;19.38;;;9.38;;
70420;SDS011;57848;51.938;15.520;2022-12-07T10:41:08;17.75;;;8.63;;
70420;SDS011;57848;51.938;15.520;2022-12-07T10:43:34;17.65;;;8.57;;
70420;SDS011;57848;51.938;15.520;2022-12-07T10:51:45;15.85;;;7.07;;
70420;SDS011;57848;51.938;15.520;2022-12-07T10:54:22;21.33;;;10.07;;
70420;SDS011;57848;51.938;15.520;2022-12-07T10:57:19;18.25;;;9.13;;
70420;SDS011;57848;51.938;15.520;2022-12-07T11:02:45;16.10;;;8.25;;
70420;SDS011;57848;51.938;15.520;2022-12-07T11:05:30;15.93;;;7.55;;
70420;SDS011;57848;51.938;15.520;2022-12-07T11:08:18;16.10;;;7.57;;
70420;SDS011;57848;51.938;15.520;2022-12-07T11:11:06;15.63;;;7.25;;
70420;SDS011;57848;51.938;15.520;2022-12-07T11:19:10;16.63;;;7.28;;
70420;SDS011;57848;51.938;15.520;2022-12-07T11:24:15;14.27;;;7.00;;
70420;SDS011;57848;51.938;15.520;2022-12-07T11:29:55;15.50;;;7.60;;
70420;SDS011;57848;51.938;15.520;2022-12-07T11:32:43;19.17;;;8.25;;
70420;SDS011;57848;51.938;15.520;2022-12-07T11:37:44;68.00;;;29.52;;
70420;SDS011;57848;51.938;15.520;2022-12-07T11:42:49;19.73;;;10.02;;
70420;SDS011;57848;51.938;15.520;2022-12-07T11:45:37;13.82;;;5.53;;
70420;SDS011;57848;51.938;15.520;2022-12-07T11:48:10;18.23;;;7.87;;
70420;SDS011;57848;51.938;15.520;2022-12-07T11:50:47;12.52;;;6.22;;
70420;SDS011;57848;51.938;15.520;2022-12-07T11:53:18;10.98;;;5.55;;
70420;SDS011;57848;51.938;15.520;2022-12-07T11:55:54;14.07;;;6.97;;
70420;SDS011;57848;51.938;15.520;2022-12-07T12:03:40;6.93;;;2.63;;
70420;SDS011;57848;51.938;15.520;2022-12-07T12:06:14;7.00;;;2.50;;
70420;SDS011;57848;51.938;15.520;2022-12-07T12:08:47;7.90;;;3.00;;
70420;SDS011;57848;51.938;15.520;2022-12-07T12:14:03;7.20;;;2.28;;
70420;SDS011;57848;51.938;15.520;2022-12-07T12:16:49;9.55;;;3.47;;
70420;SDS011;57848;51.938;15.520;2022-12-07T12:22:00;9.38;;;3.58;;
70420;SDS011;57848;51.938;15.520;2022-12-07T12:24:35;9.83;;;3.53;;
70420;SDS011;57848;51.938;15.520;2022-12-07T12:27:05;9.60;;;3.85;;
70420;SDS011;57848;51.938;15.520;2022-12-07T12:29:36;11.32;;;6.13;;
70420;SDS011;57848;51.938;15.520;2022-12-07T12:32:05;21.38;;;8.30;;
70420;SDS011;57848;51.938;15.520;2022-12-07T12:34:39;36.60;;;11.90;;
70420;SDS011;57848;51.938;15.520;2022-12-07T12:42:45;11.70;;;4.47;;
70420;SDS011;57848;51.938;15.520;2022-12-07T12:45:17;14.18;;;4.80;;
70420;SDS011;57848;51.938;15.520;2022-12-07T12:48:00;12.25;;;4.78;;
70420;SDS011;57848;51.938;15.520;2022-12-07T12:50:33;9.00;;;4.10;;
70420;SDS011;57848;51.938;15.520;2022-12-07T12:53:04;9.80;;;4.03;;
70420;SDS011;57848;51.938;15.520;2022-12-07T13:00:49;7.82;;;2.90;;
70420;SDS011;57848;51.938;15.520;2022-12-07T13:03:52;9.88;;;3.60;;
70420;SDS011;57848;51.938;15.520;2022-12-07T13:08:54;8.02;;;3.05;;
70420;SDS011;57848;51.938;15.520;2022-12-07T13:11:30;7.80;;;3.28;;
70420;SDS011;57848;51.938;15.520;2022-12-07T13:17:12;10.63;;;3.97;;
70420;SDS011;57848;51.938;15.520;2022-12-07T13:20:03;18.40;;;7.10;;
70420;SDS011;57848;51.938;15.520;2022-12-07T13:27:46;15.75;;;8.38;;
70420;SDS011;57848;51.938;15.520;2022-12-07T13:30:18;7.18;;;3.00;;
70420;SDS011;57848;51.938;15.520;2022-12-07T13:32:56;6.68;;;2.00;;
70420;SDS011;57848;51.938;15.520;2022-12-07T13:35:33;5.70;;;1.85;;
70420;SDS011;57848;51.938;15.520;2022-12-07T13:38:15;7.67;;;2.67;;
70420;SDS011;57848;51.938;15.520;2022-12-07T13:41:00;10.52;;;1.92;;
70420;SDS011;57848;51.938;15.520;2022-12-07T13:43:27;7.28;;;2.38;;
70420;SDS011;57848;51.938;15.520;2022-12-07T13:45:56;8.43;;;2.40;;
70420;SDS011;57848;51.938;15.520;2022-12-07T13:48:33;8.77;;;2.70;;
70420;SDS011;57848;51.938;15.520;2022-12-07T13:51:02;8.50;;;2.28;;
70420;SDS011;57848;51.938;15.520;2022-12-07T13:53:29;7.60;;;2.42;;
70420;SDS011;57848;51.938;15.520;2022-12-07T13:55:58;8.27;;;2.00;;
70420;SDS011;57848;51.938;15.520;2022-12-07T13:58:25;6.78;;;2.28;;
70420;SDS011;57848;51.938;15.520;2022-12-07T14:00:55;7.15;;;2.10;;
70420;SDS011;57848;51.938;15.520;2022-12-07T14:03:31;5.57;;;1.83;;
70420;SDS011;57848;51.938;15.520;2022-12-07T14:06:06;7.50;;;1.67;;
70420;SDS011;57848;51.938;15.520;2022-12-07T14:08:42;6.35;;;1.80;;
70420;SDS011;57848;51.938;15.520;2022-12-07T14:11:18;8.52;;;2.13;;
70420;SDS011;57848;51.938;15.520;2022-12-07T14:13:51;17.17;;;7.00;;
70420;SDS011;57848;51.938;15.520;2022-12-07T14:16:32;10.13;;;2.85;;
70420;SDS011;57848;51.938;15.520;2022-12-07T14:23:24;28.48;;;10.35;;
70420;SDS011;57848;51.938;15.520;2022-12-07T14:25:51;12.70;;;5.00;;
70420;SDS011;57848;51.938;15.520;2022-12-07T14:28:28;9.30;;;3.45;;
70420;SDS011;57848;51.938;15.520;2022-12-07T14:30:59;9.48;;;3.55;;
70420;SDS011;57848;51.938;15.520;2022-12-07T14:33:25;9.77;;;3.07;;
70420;SDS011;57848;51.938;15.520;2022-12-07T14:35:51;8.82;;;3.17;;
70420;SDS011;57848;51.938;15.520;2022-12-07T14:38:21;9.65;;;3.90;;
70420;SDS011;57848;51.938;15.520;2022-12-07T14:40:47;9.70;;;4.22;;
70420;SDS011;57848;51.938;15.520;2022-12-07T14:43:14;10.75;;;3.78;;
70420;SDS011;57848;51.938;15.520;2022-12-07T14:45:41;9.33;;;4.07;;
70420;SDS011;57848;51.938;15.520;2022-12-07T14:48:09;11.43;;;4.25;;
70420;SDS011;57848;51.938;15.520;2022-12-07T14:50:38;9.32;;;3.92;;
70420;SDS011;57848;51.938;15.520;2022-12-07T14:53:13;13.90;;;4.20;;
70420;SDS011;57848;51.938;15.520;2022-12-07T14:55:41;9.77;;;3.65;;
70420;SDS011;57848;51.938;15.520;2022-12-07T14:58:10;10.93;;;3.37;;
70420;SDS011;57848;51.938;15.520;2022-12-07T15:00:39;10.90;;;5.07;;
70420;SDS011;57848;51.938;15.520;2022-12-07T15:03:04;10.03;;;3.83;;
70420;SDS011;57848;51.938;15.520;2022-12-07T15:05:30;8.00;;;3.33;;
70420;SDS011;57848;51.938;15.520;2022-12-07T15:07:55;9.18;;;3.33;;
70420;SDS011;57848;51.938;15.520;2022-12-07T15:10:25;10.70;;;4.47;;
70420;SDS011;57848;51.938;15.520;2022-12-07T15:12:55;11.45;;;4.60;;
70420;SDS011;57848;51.938;15.520;2022-12-07T15:15:41;11.63;;;4.23;;
70420;SDS011;57848;51.938;15.520;2022-12-07T15:18:06;11.27;;;3.97;;
70420;SDS011;57848;51.938;15.520;2022-12-07T15:20:32;10.30;;;3.77;;
70420;SDS011;57848;51.938;15.520;2022-12-07T15:22:58;11.82;;;3.88;;
70420;SDS011;57848;51.938;15.520;2022-12-07T15:25:23;9.37;;;3.53;;
70420;SDS011;57848;51.938;15.520;2022-12-07T15:27:49;9.15;;;3.20;;
70420;SDS011;57848;51.938;15.520;2022-12-07T15:30:14;10.63;;;4.10;;
70420;SDS011;57848;51.938;15.520;2022-12-07T15:32:40;10.43;;;4.10;;
70420;SDS011;57848;51.938;15.520;2022-12-07T15:35:05;25.40;;;8.53;;
70420;SDS011;57848;51.938;15.520;2022-12-07T15:37:31;11.00;;;4.00;;
70420;SDS011;57848;51.938;15.520;2022-12-07T15:39:57;9.43;;;3.37;;
70420;SDS011;57848;51.938;15.520;2022-12-07T15:42:22;9.30;;;3.93;;
70420;SDS011;57848;51.938;15.520;2022-12-07T15:44:47;54.10;;;17.50;;
70420;SDS011;57848;51.938;15.520;2022-12-07T15:47:29;12.30;;;3.20;;
70420;SDS011;57848;51.938;15.520;2022-12-07T15:50:05;17.10;;;3.70;;
70420;SDS011;57848;51.938;15.520;2022-12-07T15:52:33;9.50;;;3.78;;
70420;SDS011;57848;51.938;15.520;2022-12-07T15:54:58;11.30;;;3.15;;
70420;SDS011;57848;51.938;15.520;2022-12-07T15:57:28;11.93;;;4.07;;
70420;SDS011;57848;51.938;15.520;2022-12-07T15:59:54;11.07;;;3.00;;
70420;SDS011;57848;51.938;15.520;2022-12-07T16:02:19;10.73;;;3.10;;
70420;SDS011;57848;51.938;15.520;2022-12-07T16:04:45;9.25;;;2.80;;
70420;SDS011;57848;51.938;15.520;2022-12-07T16:07:11;10.03;;;2.50;;
70420;SDS011;57848;51.938;15.520;2022-12-07T16:09:39;10.63;;;3.30;;